sensor_id;sensor_type;location;lat;lon;timestamp;temperature;humidity
4693;DHT22;11710;48.024;16.296;2022-08-21T00:00:16;19.30;99.90
4693;DHT22;11710;48.024;16.296;2022-08-21T00:02:47;19.30;99.90
4693;DHT22;11710;48.024;16.296;2022-08-21T00:05:14;19.40;99.90
4693;DHT22;11710;48.024;16.296;2022-08-21T00:07:43;19.40;99.90
4693;DHT22;11710;48.024;16.296;2022-08-21T00:10:11;19.40;99.90
4693;DHT22;11710;48.024;16.296;2022-08-21T00:12:38;19.40;99.90
4693;DHT22;11710;48.024;16.296;2022-08-21T00:15:07;19.50;99.90
4693;DHT22;11710;48.024;16.296;2022-08-21T00:17:34;19.50;99.90
4693;DHT22;11710;48.024;16.296;2022-08-21T00:20:04;19.50;99.90
4693;DHT22;11710;48.024;16.296;2022-08-21T00:22:31;19.50;99.90
4693;DHT22;11710;48.024;16.296;2022-08-21T00:24:59;19.50;99.90
4693;DHT22;11710;48.024;16.296;2022-08-21T00:27:26;19.50;99.90
4693;DHT22;11710;48.024;16.296;2022-08-21T00:29:53;19.50;99.90
4693;DHT22;11710;48.024;16.296;2022-08-21T00:32:21;19.50;99.90
4693;DHT22;11710;48.024;16.296;2022-08-21T00:34:49;19.50;99.90
4693;DHT22;11710;48.024;16.296;2022-08-21T00:37:16;19.50;99.90
4693;DHT22;11710;48.024;16.296;2022-08-21T00:39:43;19.50;99.90
4693;DHT22;11710;48.024;16.296;2022-08-21T00:42:12;19.50;99.90
4693;DHT22;11710;48.024;16.296;2022-08-21T00:44:41;19.50;99.90
4693;DHT22;11710;48.024;16.296;2022-08-21T00:47:08;19.50;99.90
4693;DHT22;11710;48.024;16.296;2022-08-21T00:49:35;19.40;99.90
4693;DHT22;11710;48.024;16.296;2022-08-21T00:52:02;19.40;99.90
4693;DHT22;11710;48.024;16.296;2022-08-21T00:54:31;19.40;99.90
4693;DHT22;11710;48.024;16.296;2022-08-21T00:57:02;19.50;99.90
4693;DHT22;11710;48.024;16.296;2022-08-21T00:59:33;19.50;99.90
4693;DHT22;11710;48.024;16.296;2022-08-21T01:02:01;19.50;99.90
4693;DHT22;11710;48.024;16.296;2022-08-21T01:04:29;19.50;99.90
4693;DHT22;11710;48.024;16.296;2022-08-21T01:06:56;19.50;99.90
4693;DHT22;11710;48.024;16.296;2022-08-21T01:09:23;19.50;99.90
4693;DHT22;11710;48.024;16.296;2022-08-21T01:11:50;19.50;99.90
4693;DHT22;11710;48.024;16.296;2022-08-21T01:14:17;19.50;99.90
4693;DHT22;11710;48.024;16.296;2022-08-21T01:16:49;19.50;99.90
4693;DHT22;11710;48.024;16.296;2022-08-21T01:19:18;19.50;99.90
4693;DHT22;11710;48.024;16.296;2022-08-21T01:21:47;19.50;99.90
4693;DHT22;11710;48.024;16.296;2022-08-21T01:24:14;19.50;99.90
4693;DHT22;11710;48.024;16.296;2022-08-21T01:26:42;19.50;99.90
4693;DHT22;11710;48.024;16.296;2022-08-21T01:29:14;19.50;99.90
4693;DHT22;11710;48.024;16.296;2022-08-21T01:31:43;19.50;99.90
4693;DHT22;11710;48.024;16.296;2022-08-21T01:34:13;19.60;99.90
4693;DHT22;11710;48.024;16.296;2022-08-21T01:36:41;19.60;99.90
4693;DHT22;11710;48.024;16.296;2022-08-21T01:39:10;19.60;99.90
4693;DHT22;11710;48.024;16.296;2022-08-21T01:41:37;19.60;99.90
4693;DHT22;11710;48.024;16.296;2022-08-21T01:44:04;19.70;99.90
4693;DHT22;11710;48.024;16.296;2022-08-21T01:46:31;19.70;99.90
4693;DHT22;11710;48.024;16.296;2022-08-21T01:48:59;19.80;99.90
4693;DHT22;11710;48.024;16.296;2022-08-21T01:51:26;19.80;99.90
4693;DHT22;11710;48.024;16.296;2022-08-21T01:53:53;19.90;99.90
4693;DHT22;11710;48.024;16.296;2022-08-21T01:56:21;19.90;99.90
4693;DHT22;11710;48.024;16.296;2022-08-21T01:58:48;19.90;99.90
4693;DHT22;11710;48.024;16.296;2022-08-21T02:01:15;19.90;99.90
4693;DHT22;11710;48.024;16.296;2022-08-21T02:03:42;19.90;99.90
4693;DHT22;11710;48.024;16.296;2022-08-21T02:06:13;19.90;99.90
4693;DHT22;11710;48.024;16.296;2022-08-21T02:08:43;19.90;99.90
4693;DHT22;11710;48.024;16.296;2022-08-21T02:11:10;19.90;99.90
4693;DHT22;11710;48.024;16.296;2022-08-21T02:13:38;19.90;99.90
4693;DHT22;11710;48.024;16.296;2022-08-21T02:16:05;19.90;99.90
4693;DHT22;11710;48.024;16.296;2022-08-21T02:18:33;19.90;99.90
4693;DHT22;11710;48.024;16.296;2022-08-21T02:21:00;19.90;99.90
4693;DHT22;11710;48.024;16.296;2022-08-21T02:23:27;19.90;99.90
4693;DHT22;11710;48.024;16.296;2022-08-21T02:25:54;19.90;99.90
4693;DHT22;11710;48.024;16.296;2022-08-21T02:28:21;19.90;99.90
4693;DHT22;11710;48.024;16.296;2022-08-21T02:30:50;19.90;99.90
4693;DHT22;11710;48.024;16.296;2022-08-21T02:33:17;19.80;99.90
4693;DHT22;11710;48.024;16.296;2022-08-21T02:35:46;19.80;99.90
4693;DHT22;11710;48.024;16.296;2022-08-21T02:38:15;19.80;99.90
4693;DHT22;11710;48.024;16.296;2022-08-21T02:40:46;19.80;99.90
4693;DHT22;11710;48.024;16.296;2022-08-21T02:43:14;19.80;99.90
4693;DHT22;11710;48.024;16.296;2022-08-21T02:45:42;19.80;99.90
4693;DHT22;11710;48.024;16.296;2022-08-21T02:48:13;19.70;99.90
4693;DHT22;11710;48.024;16.296;2022-08-21T02:50:42;19.70;99.90
4693;DHT22;11710;48.024;16.296;2022-08-21T02:53:11;19.70;99.90
4693;DHT22;11710;48.024;16.296;2022-08-21T02:55:38;19.70;99.90
4693;DHT22;11710;48.024;16.296;2022-08-21T02:58:07;19.80;99.90
4693;DHT22;11710;48.024;16.296;2022-08-21T03:00:35;19.80;99.90
4693;DHT22;11710;48.024;16.296;2022-08-21T03:03:03;19.80;99.90
4693;DHT22;11710;48.024;16.296;2022-08-21T03:05:32;19.80;99.90
4693;DHT22;11710;48.024;16.296;2022-08-21T03:08:00;19.80;99.90
4693;DHT22;11710;48.024;16.296;2022-08-21T03:10:28;19.90;99.90
4693;DHT22;11710;48.024;16.296;2022-08-21T03:12:56;19.90;99.90
4693;DHT22;11710;48.024;16.296;2022-08-21T03:15:24;19.90;99.90
4693;DHT22;11710;48.024;16.296;2022-08-21T03:17:51;20.00;99.90
4693;DHT22;11710;48.024;16.296;2022-08-21T03:20:22;20.00;99.90
4693;DHT22;11710;48.024;16.296;2022-08-21T03:22:50;20.00;99.90
4693;DHT22;11710;48.024;16.296;2022-08-21T03:25:18;19.90;99.90
4693;DHT22;11710;48.024;16.296;2022-08-21T03:27:45;19.90;99.90
4693;DHT22;11710;48.024;16.296;2022-08-21T03:30:15;19.80;99.90
4693;DHT22;11710;48.024;16.296;2022-08-21T03:32:43;19.70;99.90
4693;DHT22;11710;48.024;16.296;2022-08-21T03:35:10;19.60;99.90
4693;DHT22;11710;48.024;16.296;2022-08-21T03:37:37;19.60;99.90
4693;DHT22;11710;48.024;16.296;2022-08-21T03:40:07;19.50;99.90
4693;DHT22;11710;48.024;16.296;2022-08-21T03:42:34;19.50;99.90
4693;DHT22;11710;48.024;16.296;2022-08-21T03:45:02;19.40;99.90
4693;DHT22;11710;48.024;16.296;2022-08-21T03:47:29;19.40;99.90
4693;DHT22;11710;48.024;16.296;2022-08-21T03:49:56;19.40;99.90
4693;DHT22;11710;48.024;16.296;2022-08-21T03:52:23;19.40;99.90
4693;DHT22;11710;48.024;16.296;2022-08-21T03:54:50;19.40;99.90
4693;DHT22;11710;48.024;16.296;2022-08-21T03:57:18;19.30;99.90
4693;DHT22;11710;48.024;16.296;2022-08-21T03:59:45;19.40;99.90
4693;DHT22;11710;48.024;16.296;2022-08-21T04:02:14;19.40;99.90
4693;DHT22;11710;48.024;16.296;2022-08-21T04:04:42;19.30;99.90
4693;DHT22;11710;48.024;16.296;2022-08-21T04:07:09;19.30;99.90
4693;DHT22;11710;48.024;16.296;2022-08-21T04:09:36;19.40;99.90
4693;DHT22;11710;48.024;16.296;2022-08-21T04:12:04;19.30;99.90
4693;DHT22;11710;48.024;16.296;2022-08-21T04:14:32;19.40;99.90
4693;DHT22;11710;48.024;16.296;2022-08-21T04:16:59;19.40;99.90
4693;DHT22;11710;48.024;16.296;2022-08-21T04:19:26;19.40;99.90
4693;DHT22;11710;48.024;16.296;2022-08-21T04:21:53;19.40;99.90
4693;DHT22;11710;48.024;16.296;2022-08-21T04:24:20;19.50;99.90
4693;DHT22;11710;48.024;16.296;2022-08-21T04:26:47;19.50;99.90
4693;DHT22;11710;48.024;16.296;2022-08-21T04:29:14;19.40;99.90
4693;DHT22;11710;48.024;16.296;2022-08-21T04:31:42;19.40;99.90
4693;DHT22;11710;48.024;16.296;2022-08-21T04:34:10;19.40;99.90
4693;DHT22;11710;48.024;16.296;2022-08-21T04:36:37;19.40;99.90
4693;DHT22;11710;48.024;16.296;2022-08-21T04:39:04;19.40;99.90
4693;DHT22;11710;48.024;16.296;2022-08-21T04:41:31;19.50;99.90
4693;DHT22;11710;48.024;16.296;2022-08-21T04:43:58;19.50;99.90
4693;DHT22;11710;48.024;16.296;2022-08-21T04:46:25;19.60;99.90
4693;DHT22;11710;48.024;16.296;2022-08-21T04:48:53;19.60;99.90
4693;DHT22;11710;48.024;16.296;2022-08-21T04:51:24;19.60;99.90
4693;DHT22;11710;48.024;16.296;2022-08-21T04:53:56;19.70;99.90
4693;DHT22;11710;48.024;16.296;2022-08-21T04:56:28;19.70;99.90
4693;DHT22;11710;48.024;16.296;2022-08-21T04:58:59;19.70;99.90
4693;DHT22;11710;48.024;16.296;2022-08-21T05:01:29;19.80;99.90
4693;DHT22;11710;48.024;16.296;2022-08-21T05:04:01;19.80;99.90
4693;DHT22;11710;48.024;16.296;2022-08-21T05:06:31;19.80;99.90
4693;DHT22;11710;48.024;16.296;2022-08-21T05:09:00;19.80;99.90
4693;DHT22;11710;48.024;16.296;2022-08-21T05:11:28;19.80;99.90
4693;DHT22;11710;48.024;16.296;2022-08-21T05:13:55;19.80;99.90
4693;DHT22;11710;48.024;16.296;2022-08-21T05:16:22;19.80;99.90
4693;DHT22;11710;48.024;16.296;2022-08-21T05:18:49;19.80;99.90
4693;DHT22;11710;48.024;16.296;2022-08-21T05:21:18;19.80;99.90
4693;DHT22;11710;48.024;16.296;2022-08-21T05:23:46;19.80;99.90
4693;DHT22;11710;48.024;16.296;2022-08-21T05:26:13;19.90;99.90
4693;DHT22;11710;48.024;16.296;2022-08-21T05:28:40;19.90;99.90
4693;DHT22;11710;48.024;16.296;2022-08-21T05:31:07;19.90;99.90
4693;DHT22;11710;48.024;16.296;2022-08-21T05:33:34;20.00;99.90
4693;DHT22;11710;48.024;16.296;2022-08-21T05:36:00;20.00;99.90
4693;DHT22;11710;48.024;16.296;2022-08-21T05:38:29;20.00;99.90
4693;DHT22;11710;48.024;16.296;2022-08-21T05:40:56;20.00;99.90
4693;DHT22;11710;48.024;16.296;2022-08-21T05:43:23;20.10;99.90
4693;DHT22;11710;48.024;16.296;2022-08-21T05:45:50;20.10;99.90
4693;DHT22;11710;48.024;16.296;2022-08-21T05:48:19;20.20;99.90
4693;DHT22;11710;48.024;16.296;2022-08-21T05:50:47;20.30;99.90
4693;DHT22;11710;48.024;16.296;2022-08-21T05:53:16;20.30;99.90
4693;DHT22;11710;48.024;16.296;2022-08-21T05:55:46;20.30;99.90
4693;DHT22;11710;48.024;16.296;2022-08-21T05:58:14;20.40;99.90
4693;DHT22;11710;48.024;16.296;2022-08-21T06:00:41;20.30;99.90
4693;DHT22;11710;48.024;16.296;2022-08-21T06:03:11;20.50;99.90
4693;DHT22;11710;48.024;16.296;2022-08-21T06:05:38;20.60;99.90
4693;DHT22;11710;48.024;16.296;2022-08-21T06:08:05;20.80;99.90
4693;DHT22;11710;48.024;16.296;2022-08-21T06:10:32;21.00;99.90
4693;DHT22;11710;48.024;16.296;2022-08-21T06:13:00;21.30;99.90
4693;DHT22;11710;48.024;16.296;2022-08-21T06:15:27;21.80;99.90
4693;DHT22;11710;48.024;16.296;2022-08-21T06:17:54;22.40;99.90
4693;DHT22;11710;48.024;16.296;2022-08-21T06:20:22;23.00;99.90
4693;DHT22;11710;48.024;16.296;2022-08-21T06:22:49;23.20;99.90
4693;DHT22;11710;48.024;16.296;2022-08-21T06:25:16;23.20;99.90
4693;DHT22;11710;48.024;16.296;2022-08-21T06:27:43;23.10;99.90
4693;DHT22;11710;48.024;16.296;2022-08-21T06:30:13;22.90;99.90
4693;DHT22;11710;48.024;16.296;2022-08-21T06:32:40;22.80;99.90
4693;DHT22;11710;48.024;16.296;2022-08-21T06:35:07;22.70;99.90
4693;DHT22;11710;48.024;16.296;2022-08-21T06:37:34;22.70;99.90
4693;DHT22;11710;48.024;16.296;2022-08-21T06:40:02;22.70;99.90
4693;DHT22;11710;48.024;16.296;2022-08-21T06:42:30;22.80;99.90
4693;DHT22;11710;48.024;16.296;2022-08-21T06:44:58;22.80;99.90
4693;DHT22;11710;48.024;16.296;2022-08-21T06:47:26;22.70;99.90
4693;DHT22;11710;48.024;16.296;2022-08-21T06:49:53;22.60;99.90
4693;DHT22;11710;48.024;16.296;2022-08-21T06:52:20;22.60;99.90
4693;DHT22;11710;48.024;16.296;2022-08-21T06:54:47;22.40;99.90
4693;DHT22;11710;48.024;16.296;2022-08-21T06:57:15;22.30;99.90
4693;DHT22;11710;48.024;16.296;2022-08-21T06:59:42;22.20;99.90
4693;DHT22;11710;48.024;16.296;2022-08-21T07:02:09;22.10;99.90
4693;DHT22;11710;48.024;16.296;2022-08-21T07:04:37;22.10;99.90
4693;DHT22;11710;48.024;16.296;2022-08-21T07:07:04;22.00;99.90
4693;DHT22;11710;48.024;16.296;2022-08-21T07:09:31;21.90;99.90
4693;DHT22;11710;48.024;16.296;2022-08-21T07:11:58;21.80;99.90
4693;DHT22;11710;48.024;16.296;2022-08-21T07:14:25;21.80;99.90
4693;DHT22;11710;48.024;16.296;2022-08-21T07:16:52;21.80;99.90
4693;DHT22;11710;48.024;16.296;2022-08-21T07:19:20;21.80;99.90
4693;DHT22;11710;48.024;16.296;2022-08-21T07:21:48;21.80;99.90
4693;DHT22;11710;48.024;16.296;2022-08-21T07:24:15;21.70;99.90
4693;DHT22;11710;48.024;16.296;2022-08-21T07:26:42;21.80;99.90
4693;DHT22;11710;48.024;16.296;2022-08-21T07:29:09;21.80;99.90
4693;DHT22;11710;48.024;16.296;2022-08-21T07:31:36;21.70;99.90
4693;DHT22;11710;48.024;16.296;2022-08-21T07:34:03;21.70;99.90
4693;DHT22;11710;48.024;16.296;2022-08-21T07:36:30;21.60;99.90
4693;DHT22;11710;48.024;16.296;2022-08-21T07:38:58;21.60;99.90
4693;DHT22;11710;48.024;16.296;2022-08-21T07:41:27;21.50;99.90
4693;DHT22;11710;48.024;16.296;2022-08-21T07:43:54;21.50;99.90
4693;DHT22;11710;48.024;16.296;2022-08-21T07:46:23;21.40;99.90
4693;DHT22;11710;48.024;16.296;2022-08-21T07:48:51;21.40;99.90
4693;DHT22;11710;48.024;16.296;2022-08-21T07:51:19;21.40;99.90
4693;DHT22;11710;48.024;16.296;2022-08-21T07:53:48;21.40;99.90
4693;DHT22;11710;48.024;16.296;2022-08-21T07:56:18;21.40;99.90
4693;DHT22;11710;48.024;16.296;2022-08-21T07:58:45;21.40;99.90
4693;DHT22;11710;48.024;16.296;2022-08-21T08:01:12;21.50;99.90
4693;DHT22;11710;48.024;16.296;2022-08-21T08:03:39;21.60;99.90
4693;DHT22;11710;48.024;16.296;2022-08-21T08:06:07;21.60;99.90
4693;DHT22;11710;48.024;16.296;2022-08-21T08:08:37;21.60;99.90
4693;DHT22;11710;48.024;16.296;2022-08-21T08:11:05;21.70;99.90
4693;DHT22;11710;48.024;16.296;2022-08-21T08:13:38;21.70;99.90
4693;DHT22;11710;48.024;16.296;2022-08-21T08:16:06;21.90;99.90
4693;DHT22;11710;48.024;16.296;2022-08-21T08:18:33;21.90;99.90
4693;DHT22;11710;48.024;16.296;2022-08-21T08:20:59;22.00;99.90
4693;DHT22;11710;48.024;16.296;2022-08-21T08:23:26;22.10;99.90
4693;DHT22;11710;48.024;16.296;2022-08-21T08:25:53;22.10;99.90
4693;DHT22;11710;48.024;16.296;2022-08-21T08:28:20;22.20;99.90
4693;DHT22;11710;48.024;16.296;2022-08-21T08:30:49;22.30;99.90
4693;DHT22;11710;48.024;16.296;2022-08-21T08:33:16;22.40;99.90
4693;DHT22;11710;48.024;16.296;2022-08-21T08:35:46;22.40;99.90
4693;DHT22;11710;48.024;16.296;2022-08-21T08:38:14;22.50;99.90
4693;DHT22;11710;48.024;16.296;2022-08-21T08:40:47;22.60;99.90
4693;DHT22;11710;48.024;16.296;2022-08-21T08:43:17;22.70;99.90
4693;DHT22;11710;48.024;16.296;2022-08-21T08:45:48;22.70;99.90
4693;DHT22;11710;48.024;16.296;2022-08-21T08:48:31;22.80;99.90
4693;DHT22;11710;48.024;16.296;2022-08-21T08:51:02;22.80;99.90
4693;DHT22;11710;48.024;16.296;2022-08-21T08:53:33;22.90;99.90
4693;DHT22;11710;48.024;16.296;2022-08-21T08:56:04;22.90;99.90
4693;DHT22;11710;48.024;16.296;2022-08-21T08:58:36;22.80;99.90
4693;DHT22;11710;48.024;16.296;2022-08-21T09:01:09;22.70;99.90
4693;DHT22;11710;48.024;16.296;2022-08-21T09:03:41;22.60;99.90
4693;DHT22;11710;48.024;16.296;2022-08-21T09:06:16;22.60;99.90
4693;DHT22;11710;48.024;16.296;2022-08-21T09:08:50;22.70;99.90
4693;DHT22;11710;48.024;16.296;2022-08-21T09:11:27;22.70;99.90
4693;DHT22;11710;48.024;16.296;2022-08-21T09:14:04;22.70;99.90
4693;DHT22;11710;48.024;16.296;2022-08-21T09:16:40;22.70;99.90
4693;DHT22;11710;48.024;16.296;2022-08-21T09:19:19;22.70;99.90
4693;DHT22;11710;48.024;16.296;2022-08-21T09:22:02;22.80;99.90
4693;DHT22;11710;48.024;16.296;2022-08-21T09:24:32;22.80;99.90
4693;DHT22;11710;48.024;16.296;2022-08-21T09:27:06;22.90;99.90
4693;DHT22;11710;48.024;16.296;2022-08-21T09:29:44;23.10;99.90
4693;DHT22;11710;48.024;16.296;2022-08-21T09:32:16;23.20;99.90
4693;DHT22;11710;48.024;16.296;2022-08-21T09:34:58;23.40;99.90
4693;DHT22;11710;48.024;16.296;2022-08-21T09:37:27;23.60;99.90
4693;DHT22;11710;48.024;16.296;2022-08-21T09:39:55;23.70;99.90
4693;DHT22;11710;48.024;16.296;2022-08-21T09:42:25;23.80;99.90
4693;DHT22;11710;48.024;16.296;2022-08-21T09:45:08;23.90;99.90
4693;DHT22;11710;48.024;16.296;2022-08-21T09:47:36;24.10;99.90
4693;DHT22;11710;48.024;16.296;2022-08-21T09:50:14;24.30;99.90
4693;DHT22;11710;48.024;16.296;2022-08-21T09:52:47;24.40;99.90
4693;DHT22;11710;48.024;16.296;2022-08-21T09:55:19;24.50;99.90
4693;DHT22;11710;48.024;16.296;2022-08-21T09:58:04;24.50;99.90
4693;DHT22;11710;48.024;16.296;2022-08-21T10:00:34;24.50;99.90
4693;DHT22;11710;48.024;16.296;2022-08-21T10:03:10;24.50;99.90
4693;DHT22;11710;48.024;16.296;2022-08-21T10:05:39;24.70;99.90
4693;DHT22;11710;48.024;16.296;2022-08-21T10:08:17;24.80;99.90
4693;DHT22;11710;48.024;16.296;2022-08-21T10:10:44;24.90;99.90
4693;DHT22;11710;48.024;16.296;2022-08-21T10:13:14;25.00;99.90
4693;DHT22;11710;48.024;16.296;2022-08-21T10:15:51;25.00;99.90
4693;DHT22;11710;48.024;16.296;2022-08-21T10:18:26;25.00;99.90
4693;DHT22;11710;48.024;16.296;2022-08-21T10:21:02;24.80;99.90
4693;DHT22;11710;48.024;16.296;2022-08-21T10:23:45;24.70;99.90
4693;DHT22;11710;48.024;16.296;2022-08-21T10:26:25;24.50;99.90
4693;DHT22;11710;48.024;16.296;2022-08-21T10:29:01;24.40;99.90
4693;DHT22;11710;48.024;16.296;2022-08-21T10:31:39;24.30;99.90
4693;DHT22;11710;48.024;16.296;2022-08-21T10:34:17;24.30;99.90
4693;DHT22;11710;48.024;16.296;2022-08-21T10:37:01;24.40;99.90
4693;DHT22;11710;48.024;16.296;2022-08-21T10:39:34;24.40;99.90
4693;DHT22;11710;48.024;16.296;2022-08-21T10:42:26;24.50;99.90
4693;DHT22;11710;48.024;16.296;2022-08-21T10:45:09;24.50;99.90
4693;DHT22;11710;48.024;16.296;2022-08-21T10:47:42;24.60;99.90
4693;DHT22;11710;48.024;16.296;2022-08-21T10:50:19;24.50;99.90
4693;DHT22;11710;48.024;16.296;2022-08-21T10:53:31;24.60;99.90
4693;DHT22;11710;48.024;16.296;2022-08-21T10:56:05;24.50;99.90
4693;DHT22;11710;48.024;16.296;2022-08-21T10:58:39;24.50;99.90
4693;DHT22;11710;48.024;16.296;2022-08-21T11:01:11;24.50;99.90
4693;DHT22;11710;48.024;16.296;2022-08-21T11:03:43;24.60;99.90
4693;DHT22;11710;48.024;16.296;2022-08-21T11:06:13;24.60;99.90
4693;DHT22;11710;48.024;16.296;2022-08-21T11:08:44;24.60;99.90
4693;DHT22;11710;48.024;16.296;2022-08-21T11:11:15;24.60;99.90
4693;DHT22;11710;48.024;16.296;2022-08-21T11:13:49;24.50;99.90
4693;DHT22;11710;48.024;16.296;2022-08-21T11:16:21;24.50;99.90
4693;DHT22;11710;48.024;16.296;2022-08-21T11:18:53;24.40;99.90
4693;DHT22;11710;48.024;16.296;2022-08-21T11:21:32;24.20;99.90
4693;DHT22;11710;48.024;16.296;2022-08-21T11:24:09;24.00;99.90
4693;DHT22;11710;48.024;16.296;2022-08-21T11:26:44;23.90;99.90
4693;DHT22;11710;48.024;16.296;2022-08-21T11:29:17;24.00;99.90
4693;DHT22;11710;48.024;16.296;2022-08-21T11:31:59;24.00;99.90
4693;DHT22;11710;48.024;16.296;2022-08-21T11:34:42;24.00;99.90
4693;DHT22;11710;48.024;16.296;2022-08-21T11:37:17;24.00;99.90
4693;DHT22;11710;48.024;16.296;2022-08-21T11:39:54;23.70;99.90
4693;DHT22;11710;48.024;16.296;2022-08-21T11:42:28;23.60;99.90
4693;DHT22;11710;48.024;16.296;2022-08-21T11:45:03;23.70;99.90
4693;DHT22;11710;48.024;16.296;2022-08-21T11:47:49;23.80;99.90
4693;DHT22;11710;48.024;16.296;2022-08-21T11:50:24;24.00;99.90
4693;DHT22;11710;48.024;16.296;2022-08-21T11:52:56;24.20;99.90
4693;DHT22;11710;48.024;16.296;2022-08-21T11:55:31;24.20;99.90
4693;DHT22;11710;48.024;16.296;2022-08-21T11:58:04;24.40;99.90
4693;DHT22;11710;48.024;16.296;2022-08-21T12:00:35;24.50;99.90
4693;DHT22;11710;48.024;16.296;2022-08-21T12:03:09;24.60;99.90
4693;DHT22;11710;48.024;16.296;2022-08-21T12:05:39;24.60;99.90
4693;DHT22;11710;48.024;16.296;2022-08-21T12:08:13;24.70;99.90
4693;DHT22;11710;48.024;16.296;2022-08-21T12:10:47;24.80;99.90
4693;DHT22;11710;48.024;16.296;2022-08-21T12:13:23;24.80;99.90
4693;DHT22;11710;48.024;16.296;2022-08-21T12:15:51;24.70;99.90
4693;DHT22;11710;48.024;16.296;2022-08-21T12:18:23;24.70;99.90
4693;DHT22;11710;48.024;16.296;2022-08-21T12:21:02;24.70;99.90
4693;DHT22;11710;48.024;16.296;2022-08-21T12:23:31;24.50;99.90
4693;DHT22;11710;48.024;16.296;2022-08-21T12:26:09;24.50;99.90
4693;DHT22;11710;48.024;16.296;2022-08-21T12:28:37;24.50;99.90
4693;DHT22;11710;48.024;16.296;2022-08-21T12:31:17;24.40;99.90
4693;DHT22;11710;48.024;16.296;2022-08-21T12:33:50;24.20;99.90
4693;DHT22;11710;48.024;16.296;2022-08-21T12:36:21;24.00;99.90
4693;DHT22;11710;48.024;16.296;2022-08-21T12:38:54;23.90;99.90
4693;DHT22;11710;48.024;16.296;2022-08-21T12:41:27;23.70;99.90
4693;DHT22;11710;48.024;16.296;2022-08-21T12:43:57;23.60;99.90
4693;DHT22;11710;48.024;16.296;2022-08-21T12:46:32;23.60;99.90
4693;DHT22;11710;48.024;16.296;2022-08-21T12:49:06;23.50;99.90
4693;DHT22;11710;48.024;16.296;2022-08-21T12:51:48;23.50;99.90
4693;DHT22;11710;48.024;16.296;2022-08-21T12:54:23;23.40;99.90
4693;DHT22;11710;48.024;16.296;2022-08-21T12:56:58;23.30;99.90
4693;DHT22;11710;48.024;16.296;2022-08-21T12:59:25;23.20;99.90
4693;DHT22;11710;48.024;16.296;2022-08-21T13:01:53;23.20;99.90
4693;DHT22;11710;48.024;16.296;2022-08-21T13:04:25;23.20;99.90
4693;DHT22;11710;48.024;16.296;2022-08-21T13:06:54;23.10;99.90
4693;DHT22;11710;48.024;16.296;2022-08-21T13:09:27;23.10;99.90
4693;DHT22;11710;48.024;16.296;2022-08-21T13:11:57;23.10;99.90
4693;DHT22;11710;48.024;16.296;2022-08-21T13:14:28;23.10;99.90
4693;DHT22;11710;48.024;16.296;2022-08-21T13:16:58;23.10;99.90
4693;DHT22;11710;48.024;16.296;2022-08-21T13:19:26;23.10;99.90
4693;DHT22;11710;48.024;16.296;2022-08-21T13:21:55;23.10;99.90
4693;DHT22;11710;48.024;16.296;2022-08-21T13:24:25;23.10;99.90
4693;DHT22;11710;48.024;16.296;2022-08-21T13:26:53;23.00;99.90
4693;DHT22;11710;48.024;16.296;2022-08-21T13:29:27;23.00;99.90
4693;DHT22;11710;48.024;16.296;2022-08-21T13:31:57;23.00;99.90
4693;DHT22;11710;48.024;16.296;2022-08-21T13:34:28;23.10;99.90
4693;DHT22;11710;48.024;16.296;2022-08-21T13:36:58;23.10;99.90
4693;DHT22;11710;48.024;16.296;2022-08-21T13:39:26;23.00;99.90
4693;DHT22;11710;48.024;16.296;2022-08-21T13:41:57;22.90;99.90
4693;DHT22;11710;48.024;16.296;2022-08-21T13:44:33;22.90;99.90
4693;DHT22;11710;48.024;16.296;2022-08-21T13:47:03;22.90;99.90
4693;DHT22;11710;48.024;16.296;2022-08-21T13:49:34;22.90;99.90
4693;DHT22;11710;48.024;16.296;2022-08-21T13:52:02;22.90;99.90
4693;DHT22;11710;48.024;16.296;2022-08-21T13:54:34;23.00;99.90
4693;DHT22;11710;48.024;16.296;2022-08-21T13:57:02;23.00;99.90
4693;DHT22;11710;48.024;16.296;2022-08-21T13:59:32;23.10;99.90
4693;DHT22;11710;48.024;16.296;2022-08-21T14:02:01;23.20;99.90
4693;DHT22;11710;48.024;16.296;2022-08-21T14:04:37;23.20;99.90
4693;DHT22;11710;48.024;16.296;2022-08-21T14:07:15;23.20;99.90
4693;DHT22;11710;48.024;16.296;2022-08-21T14:09:44;23.20;99.90
4693;DHT22;11710;48.024;16.296;2022-08-21T14:12:14;23.10;99.90
4693;DHT22;11710;48.024;16.296;2022-08-21T14:14:43;23.00;99.90
4693;DHT22;11710;48.024;16.296;2022-08-21T14:17:13;23.00;99.90
4693;DHT22;11710;48.024;16.296;2022-08-21T14:19:43;22.90;99.90
4693;DHT22;11710;48.024;16.296;2022-08-21T14:22:29;22.90;99.90
4693;DHT22;11710;48.024;16.296;2022-08-21T14:25:02;23.00;99.90
4693;DHT22;11710;48.024;16.296;2022-08-21T14:27:33;23.00;99.90
4693;DHT22;11710;48.024;16.296;2022-08-21T14:30:04;23.10;99.90
4693;DHT22;11710;48.024;16.296;2022-08-21T14:32:40;23.20;99.90
4693;DHT22;11710;48.024;16.296;2022-08-21T14:35:07;23.20;99.90
4693;DHT22;11710;48.024;16.296;2022-08-21T14:37:35;23.20;99.90
4693;DHT22;11710;48.024;16.296;2022-08-21T14:40:03;23.20;99.90
4693;DHT22;11710;48.024;16.296;2022-08-21T14:42:30;23.20;99.90
4693;DHT22;11710;48.024;16.296;2022-08-21T14:45:03;23.20;99.90
4693;DHT22;11710;48.024;16.296;2022-08-21T14:47:31;23.20;99.90
4693;DHT22;11710;48.024;16.296;2022-08-21T14:49:58;23.10;99.90
4693;DHT22;11710;48.024;16.296;2022-08-21T14:52:25;23.10;99.90
4693;DHT22;11710;48.024;16.296;2022-08-21T14:54:52;23.10;99.90
4693;DHT22;11710;48.024;16.296;2022-08-21T14:57:19;23.00;99.90
4693;DHT22;11710;48.024;16.296;2022-08-21T14:59:46;23.00;99.90
4693;DHT22;11710;48.024;16.296;2022-08-21T15:02:15;23.00;99.90
4693;DHT22;11710;48.024;16.296;2022-08-21T15:04:42;23.00;99.90
4693;DHT22;11710;48.024;16.296;2022-08-21T15:07:09;23.00;99.90
4693;DHT22;11710;48.024;16.296;2022-08-21T15:09:35;22.90;99.90
4693;DHT22;11710;48.024;16.296;2022-08-21T15:12:03;22.80;99.90
4693;DHT22;11710;48.024;16.296;2022-08-21T15:14:35;22.80;99.90
4693;DHT22;11710;48.024;16.296;2022-08-21T15:17:03;22.70;99.90
4693;DHT22;11710;48.024;16.296;2022-08-21T15:19:33;22.70;99.90
4693;DHT22;11710;48.024;16.296;2022-08-21T15:22:00;22.60;99.90
4693;DHT22;11710;48.024;16.296;2022-08-21T15:24:27;22.50;99.90
4693;DHT22;11710;48.024;16.296;2022-08-21T15:26:55;22.40;99.90
4693;DHT22;11710;48.024;16.296;2022-08-21T15:29:23;22.30;99.90
4693;DHT22;11710;48.024;16.296;2022-08-21T15:31:52;22.30;99.90
4693;DHT22;11710;48.024;16.296;2022-08-21T15:34:20;22.20;99.90
4693;DHT22;11710;48.024;16.296;2022-08-21T15:36:49;22.20;99.90
4693;DHT22;11710;48.024;16.296;2022-08-21T15:39:15;22.20;99.90
4693;DHT22;11710;48.024;16.296;2022-08-21T15:41:43;22.20;99.90
4693;DHT22;11710;48.024;16.296;2022-08-21T15:44:11;22.10;99.90
4693;DHT22;11710;48.024;16.296;2022-08-21T15:46:39;22.10;99.90